AirNav   TITAN Aviation Fuels
 
 630 users online  

AZ05 Lakeside Airpark
Gila Bend, Arizona, USA

GOING TO GILA BEND?


FAA INFORMATION EFFECTIVE 22 APRIL 2021

Location

FAA Identifier: AZ05
Lat/Long: 33-06-45.0000N 112-39-42.0000W
33-06.750000N 112-39.700000W
33.1125000,-112.6616667
(estimated)
Elevation: 780 ft. / 238 m (estimated)
Variation: 12E (1995)
From city: 9 miles N of GILA BEND, AZ
Time zone: UTC -7 (year round; does not observe DST)
Zip code: 85337

Airport Operations

Airport use: Private use. Permission required prior to landing
Activation date: 02/2017
Control tower: no
ARTCC: ALBUQUERQUE CENTER
FSS: PRESCOTT FLIGHT SERVICE STATION
Attendance: 
Segmented circle: no

Airport Communications

WX AWOS-3 at BXK (19 nm N): 119.625 (623-386-7627)

Nearby radio navigation aids

VOR radial/distance  VOR name  Freq  Var
GBNr350/9.4GILA BEND VORTAC116.6014E
BXKr144/22.0BUCKEYE VORTAC110.6014E
PXRr229/39.7PHOENIX VORTAC115.6012E

Airport Services

Runway Information

Runway 16/34

Dimensions: 2750 x 36 ft. / 838 x 11 m
Surface: asphalt
RUNWAY 16  RUNWAY 34
Traffic pattern: leftleft

Airport Ownership and Management from official FAA records

Ownership: Privately-owned
Owner: LAKESIDE AIRPARK LLC
36444 S. HWY 85, BOX 12
BUCKEYE, AZ 85326
Phone 480-236-7977
Manager: LUIGI TALARICO
11051 E. BECK LANE
SCOTTSDALE, AZ 85255
Phone 480-236-7977
OTHER CONTACT DAVID WILLIAMSON 520-547-9302; DAVIDW@FAIRFIELDHOME.COM

Airport Operational Statistics

Aircraft based on the field: 1
Single engine airplanes: 1
    

Additional Remarks

FOR CD CTC PHOENIX APCH AT 602-306-2565.

Instrument Procedures

There are no published instrument procedures at AZ05.

Some nearby airports with instrument procedures:

KGYR - Phoenix Goodyear Airport (24 nm NE)
KLUF - Luke Air Force Base (29 nm NE)
KGEU - Glendale Municipal Airport (31 nm NE)
KPHX - Phoenix Sky Harbor International Airport (38 nm NE)
P19 - Stellar Airpark (39 nm E)
 
Loc | Ops | Rwys | IFR | FBO | Links
Com | Nav | Svcs | Stats | Notes
Aerial photo
WARNING: Photo may not be current or correct
Aerial photo of AZ05 (Lakeside Airpark)
Photo by Steve Hampton
Photo taken 01-Aug-2020
looking south.

Do you have a better or more recent aerial photo of Lakeside Airpark that you would like to share? If so, please send us your photo.

 
Airport distance calculator
Flying to Lakeside Airpark? Find the distance to fly.

From to AZ05

Sunrise and sunset
Times for 11-May-2021
 Local
(UTC-7)
 Zulu
(UTC)
Morning civil twilight05:0812:08
Sunrise05:3512:35
Sunset19:1902:19
Evening civil twilight19:4602:46

Current date and time
Zulu (UTC)  12-May-2021 04:46:44
Local (UTC-7)  11-May-2021 21:46:44
 
METAR
KGXF 
14nm S 
120358Z 24005KT 10SM CLR 27/M07 A2981 RMK AO2A SLP083 T02741070
KBXK 
19nm N 
120435Z AUTO 00000KT 10SM 25/M10 A2984 RMK A01
KGYR 
23nm NE 
120347Z 00000KT 10SM SKC 28/M05 A2982 RMK LAST
TAF
KLUF 
28nm NE 
120400Z 1204/1310 VRB06KT 9999 SKC QNH2989INS BECMG 1220/1221 20009KT 9999 SKC QNH2996INS WND VRB06KT AFT 1223 TX35/1223Z TN15/1212Z
NOTAMs
Click for the latest NOTAMs
NOTAMs are issued by the DoD/FAA and will open in a separate window not controlled by AirNav.

 

 
 

Would you like to see your business listed on this page?

 If your business provides an interesting product or service to pilots, flight crews, aircraft, or users of the Lakeside Airpark, you should consider listing it here.  To start the listing process, click on the button below
 
Add a business
 

Other Pages about Lakeside Airpark

Update a link
 
Copyright © AirNav, LLC. All rights reserved. Privacy Policy  Contact